Flight Track Log - Related Links

Times and Time Zones

All times are in EDT time to prevent confusion due to time zone crossing. See the EGF4152 flight status page for this flight to view local times or setup timezone preferences in your user account.

Time Position Orientation Groundspeed Altitude Reporting Facility
EDT Latitude Longitude Course Direction KTS MPH feet Rate Location/Type
Sat 07:21:23 AM 42.2742 -85.5453 294° West 164 189 2,500  Level Chicago Center
Sat 07:22:23 AM 42.3242 -85.5711 339° North 226 260 4,800 2,529 Climbing Chicago Center
Sat 07:23:00 AM 42.3231 -85.7795 304° West  Level FlightAware Approximate
Sat 07:23:24 AM 42.3486 -85.6586 291° West 247 284 7,600  Level Chicago Center
Sat 07:24:00 AM 42.3521 -85.8542 304° West  Level FlightAware Approximate
Sat 07:24:25 AM 42.3731 -85.7506 290° West 254 292 10,300  Level Chicago Center
Sat 07:25:00 AM 42.3874 -85.9268 298° West  Level FlightAware Approximate
Sat 07:25:25 AM 42.3983 -85.8431 290° West 261 300 12,000  Level Chicago Center
Sat 07:26:00 AM 42.4178 -86.0033 294° West  Level FlightAware Approximate
Sat 07:26:26 AM 42.4247 -85.9494 289° West 292 336 13,900  Level Chicago Center
Sat 07:27:27 AM 42.4536 -86.0578 290° West 303 349 15,600 1,033 Climbing Chicago Center
Sat 07:28:28 AM 42.4578 -86.1817 273° West 329 379 16,000 197 Climbing Chicago Center
Sat 07:29:29 AM 42.4569 -86.3114 270° West 342 394 16,000  Level Chicago Center
Sat 07:30:29 AM 42.4564 -86.4411 270° West 343 395 16,000 -248 Level Chicago Center
Sat 07:31:30 AM 42.4567 -86.5697 270° West 340 391 15,500 -984 Descending Chicago Center
Sat 07:32:31 AM 42.4569 -86.7028 270° West 351 404 14,000 -1,426 Descending Chicago Center
Sat 07:33:32 AM 42.4578 -86.8339 271° West 350 403 12,600 -1,475 Descending Chicago Center
Sat 07:34:33 AM 42.4567 -86.9614 269° West 341 392 11,000 -1,230 Descending Chicago Center
Sat 07:35:34 AM 42.4556 -87.0803 269° West 320 368 10,100 -787 Descending Chicago Center
Sat 07:36:35 AM 42.4381 -87.1764 256° West 269 310 9,400 -541 Descending Chicago Center
Sat 07:37:36 AM 42.4117 -87.2708 249° West 268 308 9,000 -738 Descending Chicago Center
Sat 07:38:37 AM 42.3814 -87.3803 250° West 261 300 7,900 -992 Descending Chicago Center
Sat 07:39:37 AM 42.3261 -87.4175 206° Southwest 276 318 7,000 -992 Descending Chicago Center
Sat 07:40:38 AM 42.2422 -87.4256 184° South 274 315 5,900 -1,033 Descending Chicago Center
Sat 07:41:39 AM 42.1681 -87.4333 184° South 268 308 4,900 -981 Descending Chicago Center
Sat 07:42:22 AM 42.1167 -87.4333 180° South 265 305 4,200 -557 Descending Chicago TRACON
Sat 07:43:16 AM 42.0500 -87.4500 191° South 263 303 4,000 -111 Descending Chicago TRACON
Sat 07:44:10 AM 42.0000 -87.5000 217° Southwest 251 289 4,000  Level Chicago TRACON
Sat 07:45:10 AM 41.9833 -87.5667 251° West 216 249 4,000  Level Chicago TRACON
Sat 07:46:04 AM 41.9833 -87.6333 270° West 187 215 4,000 -222 Level Chicago TRACON
Sat 07:46:58 AM 41.9833 -87.7000 270° West 183 211 3,600 -737 Descending Chicago TRACON
Sat 07:47:58 AM 41.9833 -87.7667 270° West 179 206 2,600 -1,000 Descending Chicago TRACON

Login

Don't have an account? Register now (free) for customized features, flight alerts, and more!